createdAt,value
2018-10-01T00:00:10.496Z,9.00
2018-10-01T00:02:39.514Z,9.97
2018-10-01T00:05:08.278Z,10.13
2018-10-01T00:07:37.080Z,9.37
2018-10-01T00:10:06.049Z,10.83
2018-10-01T00:12:34.839Z,7.87
2018-10-01T00:15:03.803Z,12.97
2018-10-01T00:17:32.633Z,8.87
2018-10-01T00:20:06.751Z,9.90
2018-10-01T00:22:40.982Z,16.17
2018-10-01T00:25:09.941Z,15.83
2018-10-01T00:27:38.915Z,13.03
2018-10-01T00:30:07.683Z,13.50
2018-10-01T00:32:36.962Z,16.20
2018-10-01T00:35:05.848Z,14.63
2018-10-01T00:37:34.687Z,16.17
2018-10-01T00:40:03.591Z,15.50
2018-10-01T00:42:32.390Z,14.67
2018-10-01T00:45:01.300Z,12.10
2018-10-01T00:47:30.089Z,11.90
2018-10-01T00:49:58.951Z,12.73
2018-10-01T00:52:28.002Z,15.87
2018-10-01T00:54:56.790Z,13.67
2018-10-01T00:57:25.718Z,12.30
2018-10-01T00:59:54.464Z,13.20
2018-10-01T01:02:23.295Z,15.80
2018-10-01T01:04:52.089Z,13.83
2018-10-01T01:07:20.926Z,11.67
2018-10-01T01:09:50.670Z,13.87
2018-10-01T01:12:19.439Z,15.13
2018-10-01T01:14:48.162Z,10.97
2018-10-01T01:17:16.905Z,10.07
2018-10-01T01:19:49.002Z,18.57
2018-10-01T01:22:17.941Z,12.37
2018-10-01T01:24:46.710Z,11.50
2018-10-01T01:27:15.538Z,13.73
2018-10-01T01:29:44.568Z,11.50
2018-10-01T01:32:13.354Z,15.40
2018-10-01T01:34:42.120Z,15.00
2018-10-01T01:37:10.950Z,14.00
2018-10-01T01:39:40.761Z,12.03
2018-10-01T01:42:09.541Z,12.77
2018-10-01T01:44:38.286Z,13.50
2018-10-01T01:47:07.126Z,15.77
2018-10-01T01:49:36.113Z,15.30
2018-10-01T01:52:05.166Z,12.83
2018-10-01T01:54:33.930Z,13.33
2018-10-01T01:57:02.809Z,11.83
2018-10-01T01:59:31.590Z,14.73
2018-10-01T02:02:00.874Z,16.57
2018-10-01T02:04:29.624Z,12.37
2018-10-01T02:06:58.411Z,12.33
2018-10-01T02:09:27.282Z,11.67
2018-10-01T02:11:56.012Z,11.33
2018-10-01T02:14:25.047Z,10.03
2018-10-01T02:16:53.823Z,15.73
2018-10-01T02:19:22.689Z,11.80
2018-10-01T02:21:51.448Z,10.17
2018-10-01T02:24:20.222Z,13.03
2018-10-01T02:26:48.931Z,9.07
2018-10-01T02:29:17.704Z,9.27
2018-10-01T02:31:46.509Z,10.63
2018-10-01T02:34:15.291Z,12.53
2018-10-01T02:36:44.118Z,10.83
2018-10-01T02:39:14.073Z,10.17
2018-10-01T02:41:42.986Z,10.70
2018-10-01T02:44:11.749Z,10.77
2018-10-01T02:46:40.538Z,12.20
2018-10-01T02:49:09.413Z,12.07
2018-10-01T02:51:43.414Z,9.90
2018-10-01T02:54:17.485Z,8.70
2018-10-01T02:56:46.256Z,11.73
2018-10-01T02:59:15.006Z,12.10
2018-10-01T03:01:43.746Z,10.97
2018-10-01T03:04:12.519Z,13.10
2018-10-01T03:06:41.282Z,11.67
2018-10-01T03:09:12.827Z,10.37
2018-10-01T03:11:41.894Z,11.17
2018-10-01T03:14:11.363Z,8.40
2018-10-01T03:16:40.151Z,7.60
2018-10-01T03:19:08.981Z,8.80
2018-10-01T03:21:38.983Z,14.67
2018-10-01T03:24:08.575Z,8.53
2018-10-01T03:26:37.388Z,7.43
2018-10-01T03:29:09.292Z,12.00
2018-10-01T03:31:38.082Z,20.00
2018-10-01T03:34:07.069Z,8.83
2018-10-01T03:36:36.040Z,13.33
2018-10-01T03:39:07.663Z,11.33
2018-10-01T03:41:36.533Z,12.90
2018-10-01T03:44:05.277Z,11.23
2018-10-01T03:46:34.064Z,11.47
2018-10-01T03:49:02.950Z,9.90
2018-10-01T03:51:31.788Z,14.40
2018-10-01T03:54:00.595Z,9.90
2018-10-01T03:56:29.344Z,13.10
2018-10-01T03:58:58.107Z,10.23
2018-10-01T04:01:26.854Z,9.10
2018-10-01T04:03:55.629Z,10.73
2018-10-01T04:06:24.400Z,8.93
2018-10-01T04:08:53.207Z,9.93
2018-10-01T04:11:21.986Z,11.37
2018-10-01T04:13:50.767Z,16.93
2018-10-01T04:16:19.629Z,9.67
2018-10-01T04:18:48.439Z,10.80
2018-10-01T04:21:17.264Z,11.40
2018-10-01T04:23:46.021Z,9.67
2018-10-01T04:26:15.048Z,11.70
2018-10-01T04:28:43.806Z,11.27
2018-10-01T04:31:12.798Z,11.17
2018-10-01T04:33:42.012Z,12.60
2018-10-01T04:36:10.821Z,12.03
2018-10-01T04:38:39.606Z,8.83
2018-10-01T04:41:08.866Z,8.87
2018-10-01T04:43:37.890Z,10.03
2018-10-01T04:46:06.679Z,12.90
2018-10-01T04:48:35.699Z,11.80
2018-10-01T04:51:04.552Z,11.30
2018-10-01T04:53:33.491Z,12.57
2018-10-01T04:56:02.359Z,13.93
2018-10-01T04:58:31.302Z,9.87
2018-10-01T05:01:00.007Z,13.73
2018-10-01T05:03:28.969Z,13.37
2018-10-01T05:05:57.978Z,9.10
2018-10-01T05:08:26.783Z,11.90
2018-10-01T05:10:55.570Z,12.70
2018-10-01T05:13:24.387Z,12.33
2018-10-01T05:15:53.158Z,11.67
2018-10-01T05:18:22.701Z,10.73
2018-10-01T05:20:51.745Z,13.20
2018-10-01T05:23:20.730Z,12.57
2018-10-01T05:25:49.715Z,11.77
2018-10-01T05:28:18.564Z,10.53
2018-10-01T05:30:47.393Z,11.07
2018-10-01T05:33:16.255Z,13.03
2018-10-01T05:35:45.171Z,14.27
2018-10-01T05:38:13.919Z,11.07
2018-10-01T05:40:42.829Z,13.80
2018-10-01T05:43:12.017Z,14.97
2018-10-01T05:45:40.814Z,11.60
2018-10-01T05:48:09.892Z,12.30
2018-10-01T05:50:38.691Z,11.23
2018-10-01T05:53:07.570Z,16.80
2018-10-01T05:55:36.516Z,11.43
2018-10-01T05:58:05.691Z,12.77
2018-10-01T06:00:34.460Z,13.33
2018-10-01T06:03:03.240Z,12.03
2018-10-01T06:05:32.102Z,10.90
2018-10-01T06:08:01.014Z,11.33
2018-10-01T06:10:29.923Z,13.03
2018-10-01T06:12:58.970Z,12.87
2018-10-01T06:15:27.896Z,13.23
2018-10-01T06:17:56.727Z,14.70
2018-10-01T06:20:25.563Z,12.07
2018-10-01T06:22:54.403Z,11.23
2018-10-01T06:25:23.605Z,11.60
2018-10-01T06:27:52.479Z,10.70
2018-10-01T06:30:21.482Z,11.50
2018-10-01T06:32:50.647Z,11.30
2018-10-01T06:35:19.629Z,9.20
2018-10-01T06:37:48.398Z,11.50
2018-10-01T06:40:17.354Z,11.80
2018-10-01T06:42:46.267Z,13.73
2018-10-01T06:45:15.077Z,11.40
2018-10-01T06:47:44.130Z,12.40
2018-10-01T06:50:13.202Z,13.13
2018-10-01T06:52:42.211Z,14.70
2018-10-01T06:55:11.167Z,12.03
2018-10-01T06:57:40.193Z,11.70
2018-10-01T07:00:10.084Z,11.87
2018-10-01T07:02:38.996Z,10.43
2018-10-01T07:05:07.880Z,11.40
2018-10-01T07:07:40.419Z,11.20
2018-10-01T07:10:11.760Z,11.60
2018-10-01T07:12:40.829Z,11.10
2018-10-01T07:15:09.736Z,10.87
2018-10-01T07:17:40.621Z,10.53
2018-10-01T07:20:09.564Z,12.30
2018-10-01T07:22:38.950Z,10.77
2018-10-01T07:25:07.969Z,10.93
2018-10-01T07:27:36.927Z,10.33
2018-10-01T07:30:06.498Z,8.03
2018-10-01T07:32:38.057Z,7.63
2018-10-01T07:35:07.943Z,8.17
2018-10-01T07:37:37.218Z,11.77
2018-10-01T07:40:06.237Z,6.33
2018-10-01T07:42:35.315Z,7.77
2018-10-01T07:45:04.298Z,7.50
2018-10-01T07:47:33.167Z,5.63
2018-10-01T07:50:02.191Z,10.87
2018-10-01T07:52:31.302Z,8.00
2018-10-01T07:55:00.213Z,7.90
2018-10-01T07:57:29.202Z,7.63
2018-10-01T07:59:58.277Z,11.63
2018-10-01T08:02:27.142Z,8.23
2018-10-01T08:04:56.328Z,8.23
2018-10-01T08:07:25.384Z,6.57
2018-10-01T08:09:54.236Z,5.53
2018-10-01T08:12:23.248Z,7.10
2018-10-01T08:14:52.360Z,5.63
2018-10-01T08:17:22.427Z,4.27
2018-10-01T08:19:53.018Z,6.47
2018-10-01T08:22:22.170Z,6.70
2018-10-01T08:24:50.969Z,6.07
2018-10-01T08:27:20.399Z,6.37
2018-10-01T08:29:49.313Z,6.00
2018-10-01T08:32:20.396Z,4.80
2018-10-01T08:34:50.546Z,8.80
2018-10-01T08:37:19.626Z,4.27
2018-10-01T08:39:48.695Z,4.57
2018-10-01T08:42:17.527Z,5.83
2018-10-01T08:44:46.351Z,6.93
2018-10-01T08:47:16.752Z,4.93
2018-10-01T08:50:52.425Z,4.23
2018-10-01T08:53:32.600Z,7.43
2018-10-01T08:56:03.692Z,7.00
2018-10-01T08:58:32.685Z,4.60
2018-10-01T09:01:01.824Z,5.57
2018-10-01T09:03:31.455Z,5.43
2018-10-01T09:06:00.447Z,5.47
2018-10-01T09:08:31.845Z,10.80
2018-10-01T09:11:02.972Z,8.67
2018-10-01T09:13:36.597Z,5.13
2018-10-01T09:16:07.964Z,6.60
2018-10-01T09:18:40.942Z,4.37
2018-10-01T09:21:13.601Z,9.37
2018-10-01T09:23:45.630Z,10.53
2018-10-01T09:26:18.065Z,7.50
2018-10-01T09:28:49.096Z,8.10
2018-10-01T09:31:19.916Z,6.30
2018-10-01T09:33:51.028Z,5.47
2018-10-01T09:36:31.492Z,5.83
2018-10-01T09:42:09.607Z,7.70
2018-10-01T09:44:40.324Z,11.23
2018-10-01T09:47:11.876Z,3.13
2018-10-01T09:49:44.200Z,3.47
2018-10-01T09:52:16.954Z,7.37
2018-10-01T09:54:49.302Z,8.40
2018-10-01T09:57:20.371Z,2.87
2018-10-01T09:59:53.492Z,9.00
2018-10-01T10:02:24.529Z,4.43
2018-10-01T10:04:56.033Z,6.63
2018-10-01T10:07:27.455Z,5.43
2018-10-01T10:10:05.792Z,5.23
2018-10-01T10:12:37.804Z,2.93
2018-10-01T10:15:09.510Z,6.70
2018-10-01T10:17:50.256Z,6.37
2018-10-01T10:20:21.647Z,5.47
2018-10-01T10:22:52.237Z,5.13
2018-10-01T10:25:21.385Z,3.90
2018-10-01T10:27:50.564Z,7.33
2018-10-01T10:30:19.891Z,4.10
2018-10-01T10:32:49.161Z,5.60
2018-10-01T10:35:18.069Z,6.63
2018-10-01T10:37:47.080Z,3.43
2018-10-01T10:40:16.115Z,3.03
2018-10-01T10:42:45.107Z,3.87
2018-10-01T10:45:14.108Z,4.07
2018-10-01T10:47:43.083Z,9.73
2018-10-01T10:50:12.123Z,5.40
2018-10-01T10:52:41.099Z,4.67
2018-10-01T10:55:10.163Z,4.87
2018-10-01T10:57:39.229Z,5.90
2018-10-01T11:00:08.381Z,3.70
2018-10-01T11:02:37.475Z,6.97
2018-10-01T11:05:06.462Z,3.40
2018-10-01T11:07:35.255Z,6.90
2018-10-01T11:10:04.310Z,3.03
2018-10-01T11:12:33.180Z,8.70
2018-10-01T11:15:02.407Z,6.57
2018-10-01T11:17:31.180Z,5.10
2018-10-01T11:20:00.340Z,2.83
2018-10-01T11:22:29.274Z,3.00
2018-10-01T11:24:58.033Z,3.70
2018-10-01T11:27:27.032Z,9.17
2018-10-01T11:29:56.435Z,6.13
2018-10-01T11:32:25.486Z,3.47
2018-10-01T11:34:54.460Z,4.83
2018-10-01T11:37:24.263Z,4.10
2018-10-01T11:39:53.557Z,3.93
2018-10-01T11:42:22.387Z,4.60
2018-10-01T11:44:51.304Z,5.83
2018-10-01T11:47:20.355Z,3.40
2018-10-01T11:49:49.623Z,3.13
2018-10-01T11:52:18.489Z,4.30
2018-10-01T11:54:47.401Z,9.57
2018-10-01T11:57:16.522Z,2.00
2018-10-01T11:59:45.332Z,3.67
2018-10-01T12:02:14.315Z,5.17
2018-10-01T12:04:43.271Z,3.73
2018-10-01T12:07:12.189Z,3.53
2018-10-01T12:09:41.323Z,4.93
2018-10-01T12:12:10.163Z,3.50
2018-10-01T12:14:39.156Z,6.57
2018-10-01T12:17:08.053Z,4.80
2018-10-01T12:19:37.023Z,4.07
2018-10-01T12:22:06.195Z,4.53
2018-10-01T12:24:35.151Z,2.93
2018-10-01T12:27:04.159Z,3.23
2018-10-01T12:29:33.041Z,3.90
2018-10-01T12:32:02.262Z,2.97
2018-10-01T12:34:31.307Z,3.40
2018-10-01T12:37:00.260Z,3.87
2018-10-01T12:39:29.343Z,7.03
2018-10-01T12:41:58.380Z,3.23
2018-10-01T12:44:27.392Z,2.40
2018-10-01T12:46:57.314Z,3.00
2018-10-01T12:49:26.456Z,2.33
2018-10-01T12:51:58.278Z,2.13
2018-10-01T12:54:29.787Z,3.17
2018-10-01T12:56:58.976Z,4.30
2018-10-01T12:59:28.093Z,3.80
2018-10-01T13:01:57.087Z,4.07
2018-10-01T13:04:25.999Z,2.03
2018-10-01T13:06:54.868Z,1.10
2018-10-01T13:09:23.656Z,1.27
2018-10-01T13:11:52.554Z,1.67
2018-10-01T13:14:21.395Z,1.03
2018-10-01T13:16:50.638Z,1.00
2018-10-01T13:19:19.486Z,1.27
2018-10-01T13:21:48.331Z,1.40
2018-10-01T13:24:17.557Z,3.37
2018-10-01T13:26:46.378Z,3.03
2018-10-01T13:29:15.500Z,3.50
2018-10-01T13:31:44.631Z,1.17
2018-10-01T13:34:13.677Z,1.93
2018-10-01T13:36:42.824Z,2.07
2018-10-01T13:39:13.046Z,1.50
2018-10-01T13:41:42.240Z,3.07
2018-10-01T13:44:11.304Z,2.00
2018-10-01T13:46:42.857Z,5.03
2018-10-01T13:49:13.568Z,6.00
2018-10-01T13:51:44.628Z,7.97
2018-10-01T13:54:14.662Z,5.23
2018-10-01T14:00:23.001Z,7.80
2018-10-01T14:02:53.822Z,6.23
2018-10-01T14:05:26.558Z,5.97
2018-10-01T14:07:57.723Z,3.67
2018-10-01T14:10:28.813Z,5.70
2018-10-01T14:12:59.843Z,9.13
2018-10-01T14:15:31.895Z,6.43
2018-10-01T14:18:04.326Z,3.97
2018-10-01T14:20:35.682Z,7.03
2018-10-01T14:23:06.301Z,4.50
2018-10-01T14:25:37.293Z,6.77
2018-10-01T14:28:08.175Z,5.73
2018-10-01T14:30:39.745Z,9.23
2018-10-01T14:33:10.545Z,5.00
2018-10-01T14:35:41.611Z,6.57
2018-10-01T14:38:47.858Z,5.73
2018-10-01T14:41:18.337Z,7.23
2018-10-01T14:43:50.167Z,6.07
2018-10-01T14:46:20.883Z,11.07
2018-10-01T14:48:52.317Z,7.33
2018-10-01T14:51:23.151Z,7.70
2018-10-01T14:53:53.807Z,7.97
2018-10-01T14:56:25.352Z,8.87
2018-10-01T14:58:57.599Z,9.83
2018-10-01T15:01:29.193Z,8.73
2018-10-01T15:03:59.592Z,9.27
2018-10-01T15:06:31.355Z,10.57
2018-10-01T15:09:02.427Z,7.13
2018-10-01T15:11:32.844Z,8.53
2018-10-01T15:14:03.671Z,6.87
2018-10-01T15:16:36.681Z,5.93
2018-10-01T15:19:07.406Z,9.03
2018-10-01T15:21:39.067Z,8.87
2018-10-01T15:24:10.348Z,5.90
2018-10-01T15:26:41.741Z,7.87
2018-10-01T15:29:12.458Z,8.37
2018-10-01T15:31:43.217Z,6.83
2018-10-01T15:34:13.754Z,7.90
2018-10-01T15:36:44.372Z,7.90
2018-10-01T15:39:15.165Z,7.37
2018-10-01T15:41:45.952Z,7.03
2018-10-01T15:44:16.828Z,9.33
2018-10-01T15:46:48.318Z,9.57
2018-10-01T15:49:19.229Z,11.73
2018-10-01T15:51:50.121Z,12.17
2018-10-01T15:54:21.157Z,6.77
2018-10-01T15:56:53.237Z,7.53
2018-10-01T15:59:24.468Z,13.23
2018-10-01T16:01:55.249Z,6.67
2018-10-01T16:04:26.527Z,5.77
2018-10-01T16:06:57.524Z,7.47
2018-10-01T16:09:28.799Z,10.00
2018-10-01T16:12:00.177Z,7.27
2018-10-01T16:14:30.862Z,7.27
2018-10-01T16:17:04.574Z,13.03
2018-10-01T16:19:35.912Z,6.10
2018-10-01T16:24:42.912Z,7.43
2018-10-01T16:27:13.777Z,6.00
2018-10-01T16:29:44.978Z,7.40
2018-10-01T16:32:16.051Z,7.10
2018-10-01T16:34:47.030Z,8.63
2018-10-01T16:37:18.854Z,4.43
2018-10-01T16:39:49.759Z,8.20
2018-10-01T16:44:58.505Z,9.03
2018-10-01T16:47:29.874Z,13.60
2018-10-01T16:50:02.036Z,7.47
2018-10-01T16:52:33.633Z,3.90
2018-10-01T16:55:04.251Z,7.03
2018-10-01T16:57:35.192Z,7.17
2018-10-01T17:00:06.212Z,5.50
2018-10-01T17:02:37.333Z,7.03
2018-10-01T17:05:08.557Z,6.27
2018-10-01T17:07:39.164Z,7.57
2018-10-01T17:10:09.959Z,3.70
2018-10-01T17:12:41.332Z,3.43
2018-10-01T17:15:12.623Z,7.80
2018-10-01T17:17:43.499Z,4.77
2018-10-01T17:20:13.952Z,6.97
2018-10-01T17:22:45.030Z,5.23
2018-10-01T17:25:16.048Z,5.10
2018-10-01T17:27:46.796Z,8.13
2018-10-01T17:30:18.054Z,4.63
2018-10-01T17:32:48.761Z,4.10
2018-10-01T17:35:20.256Z,3.70
2018-10-01T17:37:51.535Z,5.23
2018-10-01T17:40:22.083Z,6.90
2018-10-01T17:42:55.076Z,3.70
2018-10-01T17:45:26.242Z,5.30
2018-10-01T17:47:56.343Z,4.80
2018-10-01T17:50:26.937Z,5.40
2018-10-01T17:52:57.878Z,6.13
2018-10-01T17:55:29.281Z,4.57
2018-10-01T17:58:00.557Z,3.97
2018-10-01T18:00:31.353Z,7.70
2018-10-01T18:03:02.947Z,7.33
2018-10-01T18:05:33.951Z,5.97
2018-10-01T18:08:05.297Z,8.43
2018-10-01T18:10:36.652Z,6.53
2018-10-01T18:13:08.071Z,4.30
2018-10-01T18:15:39.373Z,5.50
2018-10-01T18:18:10.807Z,7.93
2018-10-01T18:20:42.151Z,8.27
2018-10-01T18:23:13.493Z,5.33
2018-10-01T18:25:44.429Z,6.00
2018-10-01T18:28:15.266Z,4.93
2018-10-01T18:30:46.488Z,4.93
2018-10-01T18:33:16.978Z,9.13
2018-10-01T18:35:47.795Z,5.80
2018-10-01T18:38:20.730Z,9.47
2018-10-01T18:40:53.067Z,7.50
2018-10-01T18:43:24.243Z,6.70
2018-10-01T18:45:55.462Z,6.13
2018-10-01T18:48:26.330Z,3.67
2018-10-01T18:50:58.177Z,4.57
2018-10-01T18:53:29.310Z,4.27
2018-10-01T18:56:00.509Z,9.00
2018-10-01T18:58:31.803Z,4.17
2018-10-01T19:01:03.019Z,10.77
2018-10-01T19:03:34.685Z,7.10
2018-10-01T19:06:07.540Z,10.47
2018-10-01T19:08:38.542Z,8.97
2018-10-01T19:11:10.624Z,7.23
2018-10-01T19:13:41.909Z,7.90
2018-10-01T19:16:13.158Z,11.37
2018-10-01T19:18:44.617Z,6.47
2018-10-01T19:21:15.770Z,7.77
2018-10-01T19:23:47.706Z,7.90
2018-10-01T19:26:19.190Z,13.97
2018-10-01T19:28:50.027Z,8.30
2018-10-01T19:31:20.984Z,7.77
2018-10-01T19:33:51.869Z,6.93
2018-10-01T19:36:23.284Z,7.13
2018-10-01T19:38:54.152Z,9.57
2018-10-01T19:41:25.136Z,12.40
2018-10-01T19:43:56.122Z,10.13
2018-10-01T19:46:27.237Z,8.50
2018-10-01T19:48:58.702Z,12.23
2018-10-01T19:51:29.621Z,10.37
2018-10-01T19:54:00.711Z,9.30
2018-10-01T19:56:32.621Z,14.67
2018-10-01T19:59:03.640Z,7.20
2018-10-01T20:01:35.140Z,6.43
2018-10-01T20:04:06.540Z,8.87
2018-10-01T20:06:37.823Z,12.60
2018-10-01T20:09:12.035Z,6.07
2018-10-01T20:11:43.713Z,5.80
2018-10-01T20:14:15.091Z,10.97
2018-10-01T20:16:46.528Z,9.20
2018-10-01T20:19:17.528Z,6.03
2018-10-01T20:21:48.873Z,5.10
2018-10-01T20:24:19.779Z,7.73
2018-10-01T20:26:50.664Z,11.57
2018-10-01T20:29:22.185Z,8.60
2018-10-01T20:31:53.534Z,7.77
2018-10-01T20:34:23.819Z,7.17
2018-10-01T20:36:54.616Z,6.43
2018-10-01T20:39:25.152Z,10.00
2018-10-01T20:41:56.368Z,12.97
2018-10-01T20:44:27.746Z,9.03
2018-10-01T20:46:59.115Z,9.00
2018-10-01T20:49:30.852Z,7.83
2018-10-01T20:52:01.800Z,11.57
2018-10-01T20:54:32.688Z,8.20
2018-10-01T20:57:03.261Z,5.63
2018-10-01T20:59:33.527Z,10.57
2018-10-01T21:02:03.806Z,9.63
2018-10-01T21:04:34.227Z,7.70
2018-10-01T21:07:05.217Z,10.23
2018-10-01T21:09:35.990Z,11.80
2018-10-01T21:12:06.496Z,11.37
2018-10-01T21:14:37.490Z,7.30
2018-10-01T21:17:08.751Z,6.03
2018-10-01T21:19:39.279Z,8.60
2018-10-01T21:22:09.838Z,8.23
2018-10-01T21:24:41.227Z,9.10
2018-10-01T21:27:11.641Z,7.07
2018-10-01T21:29:43.203Z,8.43
2018-10-01T21:32:13.479Z,8.07
2018-10-01T21:34:43.548Z,9.33
2018-10-01T21:37:14.538Z,8.50
2018-10-01T21:40:17.839Z,9.87
2018-10-01T21:42:48.400Z,8.97
2018-10-01T21:45:19.090Z,11.87
2018-10-01T21:47:50.071Z,12.73
2018-10-01T21:50:21.150Z,9.90
2018-10-01T21:52:51.666Z,12.60
2018-10-01T21:55:22.360Z,10.97
2018-10-01T21:57:53.489Z,7.37
2018-10-01T22:00:24.563Z,9.10
2018-10-01T22:02:54.859Z,8.30
2018-10-01T22:05:27.444Z,7.23
2018-10-01T22:07:57.653Z,11.40
2018-10-01T22:10:29.171Z,8.50
2018-10-01T22:12:59.568Z,12.33
2018-10-01T22:15:35.411Z,15.27
2018-10-01T22:18:05.960Z,10.70
2018-10-01T22:20:36.624Z,14.93
2018-10-01T22:23:07.661Z,8.47
2018-10-01T22:25:38.498Z,8.57
2018-10-01T22:28:09.131Z,7.63
2018-10-01T22:30:40.363Z,10.80
2018-10-01T22:33:11.663Z,8.83
2018-10-01T22:35:42.143Z,9.97
2018-10-01T22:38:12.750Z,12.17
2018-10-01T22:40:43.352Z,9.70
2018-10-01T22:43:13.753Z,8.53
2018-10-01T22:45:44.541Z,10.50
2018-10-01T22:48:15.542Z,13.40
2018-10-01T22:50:47.029Z,9.13
2018-10-01T22:53:18.821Z,9.90
2018-10-01T22:55:50.831Z,9.97
2018-10-01T22:58:19.616Z,12.57
2018-10-01T23:00:48.412Z,11.43
2018-10-01T23:03:17.356Z,5.57
2018-10-01T23:05:46.179Z,10.47
2018-10-01T23:08:15.101Z,10.53
2018-10-01T23:10:43.880Z,9.70
2018-10-01T23:13:12.684Z,7.03
2018-10-01T23:15:41.457Z,13.30
2018-10-01T23:18:10.300Z,7.37
2018-10-01T23:20:39.079Z,5.67
2018-10-01T23:23:07.838Z,5.77
2018-10-01T23:25:36.799Z,5.07
2018-10-01T23:28:05.656Z,7.07
2018-10-01T23:30:34.492Z,8.50
2018-10-01T23:33:03.473Z,9.03
2018-10-01T23:35:32.160Z,9.77
2018-10-01T23:38:01.237Z,7.43
2018-10-01T23:40:30.023Z,10.10
2018-10-01T23:42:59.018Z,7.67
2018-10-01T23:45:27.822Z,7.67
2018-10-01T23:47:56.697Z,4.00
2018-10-01T23:50:25.448Z,7.77
2018-10-01T23:52:54.297Z,8.70
2018-10-01T23:55:23.481Z,6.80
2018-10-01T23:57:52.307Z,9.17
